createdAt,value
2017-06-12T00:00:00.197Z,65.20
2017-06-12T00:02:28.617Z,65.20
2017-06-12T00:04:57.268Z,64.90
2017-06-12T00:07:25.691Z,64.80
2017-06-12T00:09:54.136Z,64.30
2017-06-12T00:12:22.574Z,64.20
2017-06-12T00:14:51.753Z,64.90
2017-06-12T00:17:20.207Z,64.00
2017-06-12T00:19:48.651Z,63.60
2017-06-12T00:22:17.082Z,64.10
2017-06-12T00:24:45.532Z,64.00
2017-06-12T00:27:13.982Z,64.20
2017-06-12T00:29:43.165Z,64.00
2017-06-12T00:32:12.344Z,64.00
2017-06-12T00:34:40.856Z,64.00
2017-06-12T00:37:09.273Z,64.30
2017-06-12T00:39:37.693Z,64.30
2017-06-12T00:42:06.132Z,64.10
2017-06-12T00:44:34.548Z,64.80
2017-06-12T00:47:03.065Z,64.60
2017-06-12T00:49:31.483Z,64.60
2017-06-12T00:51:59.923Z,65.20
2017-06-12T00:54:28.349Z,65.40
2017-06-12T00:56:56.811Z,65.60
2017-06-12T00:59:25.223Z,65.80
2017-06-12T01:01:53.628Z,65.20
2017-06-12T01:04:22.108Z,65.30
2017-06-12T01:06:50.603Z,65.30
2017-06-12T01:09:19.019Z,64.60
2017-06-12T01:11:47.449Z,64.60
2017-06-12T01:14:15.860Z,64.00
2017-06-12T01:16:44.277Z,63.20
2017-06-12T01:19:13.504Z,63.40
2017-06-12T01:22:03.931Z,62.80
2017-06-12T01:24:32.379Z,61.40
2017-06-12T01:27:00.838Z,60.80
2017-06-12T01:29:29.332Z,60.60
2017-06-12T01:31:57.790Z,58.60
2017-06-12T01:34:26.987Z,57.80
2017-06-12T01:36:55.405Z,57.80
2017-06-12T01:39:23.855Z,56.10
2017-06-12T01:41:53.027Z,54.50
2017-06-12T01:44:21.453Z,54.40
2017-06-12T01:46:49.524Z,53.00
2017-06-12T01:49:17.940Z,51.00
2017-06-12T01:51:46.365Z,51.60
2017-06-12T01:54:15.567Z,47.40
2017-06-12T01:56:44.003Z,48.00
2017-06-12T01:59:12.429Z,47.80
2017-06-12T02:01:40.877Z,47.10
2017-06-12T02:04:09.289Z,47.10
2017-06-12T02:06:37.717Z,47.90
2017-06-12T02:09:06.352Z,48.30
2017-06-12T02:11:34.783Z,47.70
2017-06-12T02:14:03.200Z,48.20
2017-06-12T02:16:31.653Z,49.20
2017-06-12T02:19:00.053Z,48.10
2017-06-12T02:21:29.227Z,48.10
2017-06-12T02:23:57.684Z,47.90
2017-06-12T02:26:26.084Z,47.90
2017-06-12T02:28:54.497Z,47.50
2017-06-12T02:31:22.947Z,47.50
2017-06-12T02:33:51.365Z,47.50
2017-06-12T02:36:19.771Z,47.80
2017-06-12T02:38:48.229Z,47.50
2017-06-12T02:41:16.725Z,48.10
2017-06-12T02:43:45.155Z,48.50
2017-06-12T02:46:14.356Z,48.50
2017-06-12T02:48:43.545Z,48.00
2017-06-12T02:51:12.734Z,49.40
2017-06-12T02:53:41.175Z,49.30
2017-06-12T02:56:09.585Z,47.80
2017-06-12T02:58:37.700Z,48.20
2017-06-12T03:01:06.152Z,48.10
2017-06-12T03:03:35.330Z,48.70
2017-06-12T03:06:03.747Z,48.60
2017-06-12T03:08:32.209Z,49.50
2017-06-12T03:11:01.391Z,48.50
2017-06-12T03:13:29.811Z,48.50
2017-06-12T03:15:58.273Z,48.60
2017-06-12T03:18:26.691Z,49.50
2017-06-12T03:20:55.124Z,49.10
2017-06-12T03:23:24.340Z,49.00
2017-06-12T03:25:52.771Z,49.00
2017-06-12T03:28:21.174Z,49.20
2017-06-12T03:30:50.385Z,49.80
2017-06-12T03:33:18.867Z,50.40
2017-06-12T03:35:47.270Z,50.50
2017-06-12T03:38:15.717Z,50.00
2017-06-12T03:40:44.896Z,50.30
2017-06-12T03:43:13.412Z,50.30
2017-06-12T03:45:41.859Z,50.00
2017-06-12T03:48:10.708Z,50.80
2017-06-12T03:50:39.123Z,50.80
2017-06-12T03:53:07.583Z,51.10
2017-06-12T03:55:35.988Z,50.90
2017-06-12T03:58:05.180Z,51.70
2017-06-12T04:00:33.620Z,51.10
2017-06-12T04:03:02.044Z,51.10
2017-06-12T04:05:31.227Z,52.10
2017-06-12T04:07:59.664Z,51.40
2017-06-12T04:10:28.075Z,51.60
2017-06-12T04:12:56.496Z,52.10
2017-06-12T04:15:25.722Z,52.00
2017-06-12T04:17:54.146Z,51.90
2017-06-12T04:20:22.588Z,52.60
2017-06-12T04:22:51.017Z,51.70
2017-06-12T04:25:20.200Z,53.00
2017-06-12T04:27:48.617Z,53.00
2017-06-12T04:30:17.045Z,53.00
2017-06-12T04:32:45.460Z,52.20
2017-06-12T04:35:13.895Z,52.30
2017-06-12T04:37:42.343Z,52.50
2017-06-12T04:40:10.757Z,53.00
2017-06-12T04:42:39.277Z,53.10
2017-06-12T04:45:07.739Z,52.90
2017-06-12T04:47:36.835Z,53.20
2017-06-12T04:50:05.242Z,53.90
2017-06-12T04:52:33.670Z,53.50
2017-06-12T04:55:02.079Z,54.50
2017-06-12T04:57:31.267Z,54.10
2017-06-12T05:00:00.583Z,53.80
2017-06-12T05:02:29.021Z,53.70
2017-06-12T05:04:57.433Z,54.20
2017-06-12T05:07:26.625Z,54.10
2017-06-12T05:09:55.807Z,55.00
2017-06-12T05:12:24.226Z,54.80
2017-06-12T05:14:52.676Z,54.20
2017-06-12T05:17:21.063Z,55.30
2017-06-12T05:19:50.253Z,56.00
2017-06-12T05:22:19.479Z,54.40
2017-06-12T05:24:47.888Z,54.40
2017-06-12T05:27:16.301Z,54.00
2017-06-12T05:29:45.560Z,55.00
2017-06-12T05:32:13.976Z,54.90
2017-06-12T05:34:43.156Z,56.00
2017-06-12T05:37:11.592Z,55.30
2017-06-12T05:39:40.002Z,55.30
2017-06-12T05:42:08.409Z,55.50
2017-06-12T05:44:37.606Z,56.40
2017-06-12T05:47:06.027Z,55.70
2017-06-12T05:49:34.416Z,55.60
2017-06-12T05:52:02.847Z,56.50
2017-06-12T05:54:32.028Z,57.60
2017-06-12T05:57:00.562Z,57.10
2017-06-12T05:59:28.999Z,56.70
2017-06-12T06:01:57.411Z,56.40
2017-06-12T06:04:25.824Z,56.10
2017-06-12T06:06:54.283Z,56.60
2017-06-12T06:09:22.672Z,56.70
2017-06-12T06:11:51.091Z,57.00
2017-06-12T06:14:19.533Z,57.30
2017-06-12T06:16:47.953Z,57.20
2017-06-12T06:19:16.360Z,57.30
2017-06-12T06:21:44.789Z,57.50
2017-06-12T06:24:13.200Z,57.80
2017-06-12T06:26:42.380Z,57.50
2017-06-12T06:29:11.588Z,57.60
2017-06-12T06:31:40.764Z,58.60
2017-06-12T06:34:09.187Z,57.90
2017-06-12T06:36:37.617Z,57.80
2017-06-12T06:39:06.029Z,57.40
2017-06-12T06:41:34.468Z,57.50
2017-06-12T06:44:02.896Z,58.00
2017-06-12T06:46:31.320Z,57.60
2017-06-12T06:48:59.744Z,58.20
2017-06-12T06:51:28.191Z,59.30
2017-06-12T06:53:56.429Z,58.50
2017-06-12T06:56:24.841Z,58.40
2017-06-12T06:58:53.265Z,58.40
2017-06-12T07:01:21.736Z,58.50
2017-06-12T07:03:50.904Z,59.20
2017-06-12T07:06:19.347Z,59.10
2017-06-12T07:08:47.777Z,58.70
2017-06-12T07:11:16.767Z,58.50
2017-06-12T07:13:45.963Z,58.50
2017-06-12T07:16:15.141Z,58.50
2017-06-12T07:18:43.540Z,58.40
2017-06-12T07:21:12.924Z,57.90
2017-06-12T07:23:41.349Z,58.00
2017-06-12T07:26:09.762Z,57.70
2017-06-12T07:28:38.196Z,57.60
2017-06-12T07:31:06.625Z,57.70
2017-06-12T07:33:35.041Z,58.10
2017-06-12T07:36:04.256Z,58.00
2017-06-12T07:38:32.656Z,58.00
2017-06-12T07:41:01.078Z,56.80
2017-06-12T07:43:29.521Z,56.30
2017-06-12T07:45:57.951Z,56.20
2017-06-12T07:48:27.129Z,57.00
2017-06-12T07:50:55.571Z,56.90
2017-06-12T07:53:23.973Z,55.70
2017-06-12T07:55:52.381Z,55.60
2017-06-12T07:58:21.636Z,55.60
2017-06-12T08:00:50.056Z,55.60
2017-06-12T08:03:19.252Z,56.70
2017-06-12T08:05:48.259Z,54.70
2017-06-12T08:08:17.452Z,55.20
2017-06-12T08:10:46.293Z,55.70
2017-06-12T08:13:14.726Z,55.60
2017-06-12T08:15:43.149Z,55.30
2017-06-12T08:18:11.572Z,55.10
2017-06-12T08:20:40.789Z,54.60
2017-06-12T08:23:09.230Z,54.60
2017-06-12T08:25:37.635Z,53.40
2017-06-12T08:28:06.843Z,54.10
2017-06-12T08:30:35.271Z,54.10
2017-06-12T08:33:03.676Z,53.10
2017-06-12T08:35:32.122Z,53.30
2017-06-12T08:38:00.530Z,51.70
2017-06-12T08:40:29.720Z,53.50
2017-06-12T08:42:58.152Z,53.30
2017-06-12T08:45:26.596Z,52.40
2017-06-12T08:47:55.770Z,53.40
2017-06-12T08:50:24.290Z,52.80
2017-06-12T08:52:52.721Z,50.30
2017-06-12T08:55:21.140Z,50.30
2017-06-12T08:57:49.624Z,50.10
2017-06-12T09:00:18.035Z,49.90
2017-06-12T09:02:46.507Z,49.60
2017-06-12T09:05:14.915Z,48.60
2017-06-12T09:07:43.330Z,48.50
2017-06-12T09:10:12.547Z,47.00
2017-06-12T09:12:40.988Z,46.90
2017-06-12T09:15:09.405Z,46.80
2017-06-12T09:17:37.828Z,47.20
2017-06-12T09:20:06.275Z,46.70
2017-06-12T09:22:36.501Z,45.70
2017-06-12T09:25:04.907Z,45.10
2017-06-12T09:27:33.344Z,45.90
2017-06-12T09:30:01.755Z,45.00
2017-06-12T09:32:30.203Z,43.70
2017-06-12T09:34:58.648Z,44.10
2017-06-12T09:37:27.052Z,44.10
2017-06-12T09:39:55.484Z,43.60
2017-06-12T09:42:23.966Z,42.50
2017-06-12T09:44:52.369Z,43.80
2017-06-12T09:47:21.542Z,42.40
2017-06-12T09:49:50.021Z,42.40
2017-06-12T09:52:18.491Z,42.90
2017-06-12T09:54:46.900Z,42.50
2017-06-12T09:57:16.558Z,41.90
2017-06-12T09:59:44.982Z,41.90
2017-06-12T10:02:14.175Z,41.70
2017-06-12T10:04:42.675Z,42.40
2017-06-12T10:07:11.857Z,44.20
2017-06-12T10:09:41.057Z,41.50
2017-06-12T10:12:10.255Z,41.00
2017-06-12T10:14:39.426Z,41.70
2017-06-12T10:17:07.844Z,41.70
2017-06-12T10:19:36.562Z,40.00
2017-06-12T10:22:04.977Z,39.80
2017-06-12T10:24:33.361Z,40.00
2017-06-12T10:27:01.881Z,39.60
2017-06-12T10:29:30.289Z,41.80
2017-06-12T10:31:58.736Z,42.70
2017-06-12T10:34:27.317Z,41.80
2017-06-12T10:36:55.744Z,41.70
2017-06-12T10:39:24.146Z,41.00
2017-06-12T10:41:53.369Z,40.80
2017-06-12T10:44:21.782Z,40.80
2017-06-12T10:46:50.245Z,40.80
2017-06-12T10:49:18.916Z,39.40
2017-06-12T10:51:47.351Z,39.90
2017-06-12T10:54:15.813Z,40.30
2017-06-12T10:56:44.557Z,39.90
2017-06-12T10:59:13.069Z,40.40
2017-06-12T11:01:41.485Z,40.60
2017-06-12T11:04:10.097Z,40.60
2017-06-12T11:06:38.508Z,42.00
2017-06-12T11:09:06.937Z,42.90
2017-06-12T11:11:36.485Z,43.60
2017-06-12T11:14:04.897Z,42.90
2017-06-12T11:16:33.306Z,41.80
2017-06-12T11:19:02.441Z,42.10
2017-06-12T11:21:30.663Z,42.00
2017-06-12T11:23:59.849Z,41.70
2017-06-12T11:26:33.905Z,41.70
2017-06-12T11:29:02.143Z,40.80
2017-06-12T11:31:30.361Z,40.80
2017-06-12T11:33:58.792Z,39.70
2017-06-12T11:36:28.000Z,42.00
2017-06-12T11:38:57.192Z,40.90
2017-06-12T11:41:26.257Z,40.60
2017-06-12T11:43:54.699Z,41.20
2017-06-12T11:46:23.192Z,41.60
2017-06-12T11:48:52.453Z,40.70
2017-06-12T11:51:21.644Z,41.60
2017-06-12T11:53:50.837Z,39.80
2017-06-12T11:56:19.312Z,39.80
2017-06-12T11:58:47.774Z,40.60
2017-06-12T12:01:16.200Z,41.80
2017-06-12T12:03:44.786Z,41.20
2017-06-12T12:06:13.215Z,40.60
2017-06-12T12:08:41.627Z,39.60
2017-06-12T12:11:11.111Z,38.90
2017-06-12T12:13:39.544Z,38.90
2017-06-12T12:16:07.996Z,40.10
2017-06-12T12:18:36.454Z,41.60
2017-06-12T12:21:04.901Z,41.80
2017-06-12T12:23:33.995Z,42.00
2017-06-12T12:26:02.647Z,40.80
2017-06-12T12:28:31.024Z,42.20
2017-06-12T12:31:00.886Z,42.00
2017-06-12T12:33:29.504Z,41.30
2017-06-12T12:35:57.997Z,40.70
2017-06-12T12:38:26.416Z,40.90
2017-06-12T12:40:55.049Z,41.00
2017-06-12T12:43:23.459Z,40.30
2017-06-12T12:45:51.871Z,40.40
2017-06-12T12:48:20.320Z,40.40
2017-06-12T12:50:48.744Z,40.50
2017-06-12T12:53:17.934Z,41.80
2017-06-12T12:55:46.754Z,41.80
2017-06-12T12:58:15.165Z,41.00
2017-06-12T13:00:43.593Z,41.30
2017-06-12T13:03:12.837Z,39.50
2017-06-12T13:05:41.264Z,39.50
2017-06-12T13:08:09.769Z,40.30
2017-06-12T13:10:38.556Z,40.20
2017-06-12T13:13:06.985Z,40.30
2017-06-12T13:15:35.396Z,40.20
2017-06-12T13:18:04.792Z,41.50
2017-06-12T13:20:33.964Z,40.80
2017-06-12T13:23:02.387Z,40.80
2017-06-12T13:25:31.089Z,40.50
2017-06-12T13:27:59.549Z,41.70
2017-06-12T13:30:27.964Z,41.80
2017-06-12T13:32:56.448Z,43.40
2017-06-12T13:35:24.856Z,42.70
2017-06-12T13:37:53.391Z,43.10
2017-06-12T13:40:22.297Z,42.80
2017-06-12T13:42:50.689Z,43.50
2017-06-12T13:45:19.113Z,43.40
2017-06-12T13:47:47.704Z,43.50
2017-06-12T13:50:16.132Z,43.50
2017-06-12T13:52:44.548Z,43.00
2017-06-12T13:55:13.753Z,42.70
2017-06-12T13:57:42.168Z,42.60
2017-06-12T14:00:10.580Z,43.10
2017-06-12T14:02:39.367Z,43.20
2017-06-12T14:05:07.824Z,42.60
2017-06-12T14:07:36.286Z,42.70
2017-06-12T14:10:05.016Z,41.40
2017-06-12T14:12:33.572Z,41.60
2017-06-12T14:15:01.990Z,41.00
2017-06-12T14:17:31.803Z,42.80
2017-06-12T14:20:00.997Z,42.70
2017-06-12T14:22:30.165Z,42.80
2017-06-12T14:24:58.803Z,42.70
2017-06-12T14:27:27.215Z,42.50
2017-06-12T14:29:55.628Z,42.80
2017-06-12T14:32:24.468Z,43.60
2017-06-12T14:34:52.884Z,43.60
2017-06-12T14:37:21.312Z,42.40
2017-06-12T14:39:49.893Z,42.10
2017-06-12T14:42:18.297Z,43.60
2017-06-12T14:44:46.750Z,42.30
2017-06-12T14:47:15.428Z,42.40
2017-06-12T14:49:43.844Z,42.20
2017-06-12T14:52:12.262Z,44.10
2017-06-12T14:54:41.700Z,42.60
2017-06-12T14:57:10.181Z,42.60
2017-06-12T14:59:38.630Z,42.60
2017-06-12T15:02:07.993Z,43.20
2017-06-12T15:04:36.408Z,43.30
2017-06-12T15:07:05.588Z,45.00
2017-06-12T15:09:33.919Z,44.90
2017-06-12T15:12:02.348Z,44.30
2017-06-12T15:14:30.775Z,43.40
2017-06-12T15:16:59.443Z,43.90
2017-06-12T15:19:27.879Z,43.80
2017-06-12T15:21:56.304Z,44.00
2017-06-12T15:24:24.741Z,45.20
2017-06-12T15:26:53.228Z,44.10
2017-06-12T15:29:21.644Z,43.60
2017-06-12T15:31:50.070Z,43.80
2017-06-12T15:34:18.500Z,43.90
2017-06-12T15:36:46.927Z,43.90
2017-06-12T15:39:15.409Z,44.00
2017-06-12T15:41:43.840Z,44.20
2017-06-12T15:44:12.256Z,44.00
2017-06-12T15:46:40.884Z,44.90
2017-06-12T15:49:09.300Z,45.10
2017-06-12T15:51:37.703Z,45.10
2017-06-12T15:54:06.342Z,44.40
2017-06-12T15:56:34.777Z,45.40
2017-06-12T15:59:03.211Z,44.80
2017-06-12T16:01:31.836Z,45.40
2017-06-12T16:04:00.257Z,45.60
2017-06-12T16:06:28.679Z,45.50
2017-06-12T16:08:57.118Z,45.30
2017-06-12T16:11:26.077Z,46.50
2017-06-12T16:13:54.581Z,46.90
2017-06-12T16:16:23.468Z,46.90
2017-06-12T16:18:51.885Z,46.20
2017-06-12T16:21:20.328Z,46.10
2017-06-12T16:23:49.038Z,46.40
2017-06-12T16:26:17.500Z,46.30
2017-06-12T16:28:45.973Z,47.00
2017-06-12T16:31:14.569Z,46.50
2017-06-12T16:33:42.981Z,46.50
2017-06-12T16:36:11.409Z,46.10
2017-06-12T16:38:39.838Z,46.20
2017-06-12T16:41:08.254Z,45.70
2017-06-12T16:43:37.439Z,45.70
2017-06-12T16:46:06.252Z,45.50
2017-06-12T16:48:34.695Z,45.70
2017-06-12T16:51:03.113Z,46.70
2017-06-12T16:53:31.697Z,46.20
2017-06-12T16:56:00.167Z,46.50
2017-06-12T16:58:29.348Z,46.40
2017-06-12T17:00:58.588Z,46.30
2017-06-12T17:03:27.003Z,46.30
2017-06-12T17:05:55.421Z,46.30
2017-06-12T17:08:24.833Z,46.20
2017-06-12T17:10:53.254Z,46.10
2017-06-12T17:13:21.708Z,46.30
2017-06-12T17:15:50.369Z,46.50
2017-06-12T17:18:18.792Z,46.20
2017-06-12T17:20:47.209Z,46.20
2017-06-12T17:23:16.715Z,47.70
2017-06-12T17:25:45.918Z,46.80
2017-06-12T17:28:15.258Z,47.20
2017-06-12T17:30:43.873Z,47.20
2017-06-12T17:33:12.288Z,47.00
2017-06-12T17:35:40.769Z,47.60
2017-06-12T17:38:09.359Z,47.30
2017-06-12T17:40:37.794Z,47.50
2017-06-12T17:43:06.236Z,47.40
2017-06-12T17:45:34.679Z,47.80
2017-06-12T17:48:03.889Z,47.70
2017-06-12T17:50:32.323Z,47.60
2017-06-12T17:53:00.950Z,48.10
2017-06-12T17:55:29.385Z,47.80
2017-06-12T17:57:57.802Z,47.50
2017-06-12T18:00:27.216Z,48.40
2017-06-12T18:02:55.660Z,48.30
2017-06-12T18:05:24.089Z,48.40
2017-06-12T18:07:52.758Z,47.90
2017-06-12T18:10:21.180Z,47.50
2017-06-12T18:12:49.610Z,48.50
2017-06-12T18:15:18.081Z,48.60
2017-06-12T18:17:47.324Z,49.30
2017-06-12T18:20:15.737Z,48.90
2017-06-12T18:22:44.552Z,48.20
2017-06-12T18:25:12.982Z,49.00
2017-06-12T18:27:41.439Z,48.60
2017-06-12T18:30:10.105Z,49.00
2017-06-12T18:32:38.508Z,48.80
2017-06-12T18:35:06.928Z,49.40
2017-06-12T18:37:36.561Z,49.30
2017-06-12T18:40:04.994Z,49.50
2017-06-12T18:42:33.415Z,49.70
2017-06-12T18:45:02.607Z,49.60
2017-06-12T18:47:31.798Z,49.60
2017-06-12T18:50:00.983Z,49.80
2017-06-12T18:52:29.746Z,49.60
2017-06-12T18:54:58.157Z,49.90
2017-06-12T18:57:27.352Z,49.80
2017-06-12T18:59:56.664Z,49.70
2017-06-12T19:02:25.101Z,49.70
2017-06-12T19:04:53.511Z,50.60
2017-06-12T19:07:23.213Z,50.20
2017-06-12T19:09:52.633Z,50.10
2017-06-12T19:12:21.825Z,50.50
2017-06-12T19:14:51.262Z,51.30
2017-06-12T19:17:19.700Z,51.30
2017-06-12T19:19:49.148Z,50.10
2017-06-12T19:22:17.704Z,50.70
2017-06-12T19:24:46.150Z,50.70
2017-06-12T19:27:14.594Z,50.90
2017-06-12T19:29:43.049Z,51.10
2017-06-12T19:32:11.510Z,51.10
2017-06-12T19:34:40.707Z,51.30
2017-06-12T19:37:10.016Z,51.50
2017-06-12T19:39:38.469Z,51.50
2017-06-12T19:42:06.924Z,51.80
2017-06-12T19:44:35.558Z,51.90
2017-06-12T19:47:04.004Z,52.70
2017-06-12T19:49:32.453Z,51.90
2017-06-12T19:52:01.301Z,52.20
2017-06-12T19:54:30.489Z,52.90
2017-06-12T19:56:59.697Z,53.20
2017-06-12T19:59:28.176Z,52.70
2017-06-12T20:01:56.412Z,53.20
2017-06-12T20:04:25.583Z,53.00
2017-06-12T20:06:54.408Z,53.20
2017-06-12T20:09:22.829Z,53.20
2017-06-12T20:11:51.259Z,53.60
2017-06-12T20:14:19.753Z,54.00
2017-06-12T20:16:48.183Z,54.00
2017-06-12T20:19:16.648Z,54.10
2017-06-12T20:21:45.336Z,54.50
2017-06-12T20:24:13.803Z,54.50
2017-06-12T20:26:42.222Z,54.50
2017-06-12T20:29:10.834Z,54.80
2017-06-12T20:31:39.291Z,54.80
2017-06-12T20:34:07.710Z,54.80
2017-06-12T20:36:38.208Z,54.60
2017-06-12T20:39:06.695Z,55.20
2017-06-12T20:41:35.132Z,55.20
2017-06-12T20:44:03.715Z,55.20
2017-06-12T20:46:32.138Z,55.50
2017-06-12T20:49:00.549Z,55.00
2017-06-12T20:51:29.295Z,55.50
2017-06-12T20:53:59.434Z,55.00
2017-06-12T20:56:27.854Z,55.00
2017-06-12T20:58:56.316Z,54.60
2017-06-12T21:01:24.740Z,54.60
2017-06-12T21:03:53.170Z,55.30
2017-06-12T21:06:21.784Z,55.40
2017-06-12T21:08:50.209Z,55.50
2017-06-12T21:11:18.645Z,55.50
2017-06-12T21:13:47.596Z,55.10
2017-06-12T21:16:16.789Z,56.50
2017-06-12T21:18:45.972Z,55.50
2017-06-12T21:21:15.409Z,55.40
2017-06-12T21:23:43.839Z,55.20
2017-06-12T21:26:12.266Z,55.90
2017-06-12T21:28:40.723Z,56.10
2017-06-12T21:31:09.921Z,55.70
2017-06-12T21:33:39.087Z,55.30
2017-06-12T21:36:07.727Z,55.20
2017-06-12T21:38:36.152Z,55.60
2017-06-12T21:41:04.612Z,54.90
2017-06-12T21:43:33.257Z,54.80
2017-06-12T21:46:01.679Z,54.00
2017-06-12T21:48:30.146Z,54.60
2017-06-12T21:50:58.972Z,55.30
2017-06-12T21:53:27.464Z,55.50
2017-06-12T21:55:55.873Z,55.00
2017-06-12T21:58:24.366Z,54.80
2017-06-12T22:00:52.784Z,54.50
2017-06-12T22:03:21.210Z,54.80
2017-06-12T22:05:49.894Z,54.60
2017-06-12T22:08:18.335Z,54.10
2017-06-12T22:10:46.757Z,55.00
2017-06-12T22:13:15.200Z,55.00
2017-06-12T22:15:43.692Z,54.70
2017-06-12T22:18:12.883Z,54.90
2017-06-12T22:20:42.130Z,54.60
2017-06-12T22:23:10.537Z,54.60
2017-06-12T22:25:38.989Z,54.30
2017-06-12T22:28:07.460Z,54.50
2017-06-12T22:30:35.896Z,54.60
2017-06-12T22:33:05.076Z,54.60
2017-06-12T22:35:33.533Z,54.60
2017-06-12T22:38:01.943Z,55.10
2017-06-12T22:40:30.371Z,55.10
2017-06-12T22:42:58.849Z,55.00
2017-06-12T22:45:27.275Z,55.50
2017-06-12T22:47:55.709Z,55.60
2017-06-12T22:50:24.163Z,55.70
2017-06-12T22:52:52.567Z,55.40
2017-06-12T22:55:20.975Z,55.50
2017-06-12T22:57:49.451Z,55.70
2017-06-12T23:00:17.905Z,55.50
2017-06-12T23:02:46.316Z,55.90
2017-06-12T23:05:14.804Z,56.10
2017-06-12T23:07:43.244Z,55.70
2017-06-12T23:10:11.644Z,56.50
2017-06-12T23:12:40.084Z,56.50
2017-06-12T23:15:08.549Z,55.90
2017-06-12T23:17:37.729Z,56.00
2017-06-12T23:20:06.159Z,55.90
2017-06-12T23:22:34.412Z,56.20
2017-06-12T23:25:02.676Z,56.40
2017-06-12T23:27:36.562Z,56.30
2017-06-12T23:30:04.996Z,56.30
2017-06-12T23:32:33.080Z,55.90
2017-06-12T23:35:01.571Z,56.00
2017-06-12T23:37:30.030Z,56.10
2017-06-12T23:39:58.449Z,56.20
2017-06-12T23:42:26.953Z,56.10
2017-06-12T23:44:56.121Z,56.20
2017-06-12T23:47:24.568Z,56.20
2017-06-12T23:49:53.050Z,56.50
2017-06-12T23:52:21.455Z,56.30
2017-06-12T23:54:49.885Z,56.40
2017-06-12T23:57:18.363Z,56.40
2017-06-12T23:59:46.793Z,56.70
